Time;durP1;ratioP1;P1;durP2;ratioP2;P2;SDS_P1;SDS_P2;PMS_P1;PMS_P2;Temp;Humidity;BMP_temperature;BMP_pressure;BME280_temperature;BME280_humidity;BME280_pressure;Samples;Min_cycle;Max_cycle;Signal;HPM_P1;HPM_P2
2021/11/02 00:01:17;;;;;;;34.53;15.80;;;9.80;37.80;;;;;;4448161;27;656619;-80
2021/11/02 00:04:05;;;;;;;28.03;14.63;;;9.80;58.40;;;;;;4481715;27;655579;-79
2021/11/02 00:06:54;;;;;;;28.87;14.63;;;9.80;51.90;;;;;;4449046;27;655621;-79
2021/11/02 00:09:47;;;;;;;28.47;14.10;;;9.80;36.10;;;;;;4439221;27;655119;-79
2021/11/02 00:12:36;;;;;;;30.07;14.43;;;9.80;22.60;;;;;;4437785;27;655977;-79
2021/11/02 00:15:31;;;;;;;25.07;13.80;;;9.80;7.20;;;;;;4474476;27;656092;-80
2021/11/02 00:18:19;;;;;;;32.33;13.73;;;9.80;1.00;;;;;;4428386;28;654869;-79
2021/11/02 00:21:07;;;;;;;25.87;13.67;;;9.80;1.00;;;;;;4457249;27;654940;-79
2021/11/02 00:24:08;;;;;;;26.90;14.40;;;9.90;1.00;;;;;;4466338;27;656528;-79
2021/11/02 00:26:55;;;;;;;31.20;15.57;;;9.90;1.00;;;;;;4439888;27;654488;-79
2021/11/02 00:29:43;;;;;;;26.80;15.40;;;9.90;1.00;;;;;;4466735;27;655770;-80
2021/11/02 00:32:31;;;;;;;30.40;14.87;;;10.00;1.00;;;;;;4449943;27;656359;-79
2021/11/02 00:35:18;;;;;;;27.37;14.70;;;10.00;1.00;;;;;;4469965;27;656335;-80
2021/11/02 00:38:06;;;;;;;27.13;14.20;;;9.90;1.00;;;;;;4447961;27;655572;-79
2021/11/02 00:40:55;;;;;;;28.55;15.15;;;10.00;1.00;;;;;;4489351;27;654699;-79
2021/11/02 00:43:43;;;;;;;30.43;13.77;;;10.00;1.00;;;;;;4465182;27;656635;-79
2021/11/02 00:46:33;;;;;;;28.03;14.10;;;9.90;1.00;;;;;;4463575;27;655667;-79
2021/11/02 00:49:22;;;;;;;30.30;14.80;;;10.00;1.00;;;;;;4461083;27;654930;-79
2021/11/02 00:52:09;;;;;;;28.30;14.03;;;9.90;1.00;;;;;;4483594;27;655239;-79
2021/11/02 00:54:57;;;;;;;28.93;14.70;;;9.90;19.20;;;;;;4465174;27;654449;-79
2021/11/02 00:57:46;;;;;;;31.43;15.20;;;9.90;12.80;;;;;;4477309;27;655750;-79
2021/11/02 01:00:34;;;;;;;28.17;14.57;;;9.90;1.00;;;;;;4461714;27;657121;-79
2021/11/02 01:03:21;;;;;;;28.90;14.83;;;9.90;1.00;;;;;;4459312;27;654849;-79
2021/11/02 01:06:09;;;;;;;30.27;15.47;;;9.90;3.10;;;;;;4469819;27;654596;-80
2021/11/02 01:08:56;;;;;;;28.97;14.93;;;9.90;1.00;;;;;;4455348;27;654564;-79
2021/11/02 01:11:44;;;;;;;29.43;14.53;;;9.90;1.00;;;;;;4477792;27;654540;-79
2021/11/02 01:14:33;;;;;;;32.50;17.00;;;9.90;1.00;;;;;;4461647;27;654607;-79
2021/11/02 01:17:21;;;;;;;31.43;17.23;;;9.90;1.00;;;;;;4460445;27;654745;-79
2021/11/02 01:20:10;;;;;;;29.47;14.57;;;9.90;1.00;;;;;;4476562;27;655507;-80
2021/11/02 01:22:57;;;;;;;24.60;13.50;;;9.90;1.00;;;;;;4453170;27;655953;-80
2021/11/02 01:25:45;;;;;;;25.97;14.20;;;9.90;1.00;;;;;;4457708;27;654411;-78
2021/11/02 01:28:33;;;;;;;27.20;14.23;;;9.90;1.00;;;;;;4472384;27;655178;-79
2021/11/02 01:31:22;;;;;;;31.40;15.73;;;9.90;1.00;;;;;;4450421;27;654973;-79
2021/11/02 01:34:09;;;;;;;28.97;14.10;;;10.00;1.00;;;;;;4467174;27;654093;-80
2021/11/02 01:36:57;;;;;;;30.20;14.93;;;9.90;1.00;;;;;;4456779;27;655837;-79
2021/11/02 01:39:44;;;;;;;32.87;15.37;;;9.90;1.00;;;;;;4468284;27;654952;-80
2021/11/02 01:42:32;;;;;;;33.90;14.63;;;9.90;1.00;;;;;;4448566;27;655361;-79
2021/11/02 01:45:21;;;;;;;32.73;15.20;;;10.00;1.00;;;;;;4470428;27;654778;-80
2021/11/02 01:48:10;;;;;;;25.50;14.57;;;10.00;1.00;;;;;;4448519;27;657125;-79
2021/11/02 01:50:59;;;;;;;26.40;15.37;;;10.00;1.00;;;;;;4456688;27;656109;-80
2021/11/02 01:53:46;;;;;;;29.07;15.07;;;10.00;1.00;;;;;;4447553;27;655429;-79
2021/11/02 01:56:35;;;;;;;25.17;14.70;;;10.00;1.00;;;;;;4466392;27;656251;-80
2021/11/02 01:59:25;;;;;;;28.60;14.13;;;10.00;1.00;;;;;;4444209;27;656318;-79
2021/11/02 02:02:17;;;;;;;27.97;14.80;;;10.00;1.00;;;;;;4443079;27;657000;-80
2021/11/02 02:05:09;;;;;;;27.03;14.80;;;9.90;1.00;;;;;;4462422;27;655589;-80
2021/11/02 02:08:02;;;;;;;27.80;14.10;;;9.90;1.00;;;;;;4458381;27;654649;-80
2021/11/02 02:10:57;;;;;;;26.00;14.93;;;9.90;1.00;;;;;;4464745;27;654376;-80
2021/11/02 02:13:53;;;;;;;25.52;14.02;;;9.90;1.00;;;;;;4460670;27;654930;-80
2021/11/02 02:16:41;;;;;;;30.80;14.83;;;10.00;1.00;;;;;;4441494;27;655244;-78
2021/11/02 02:19:46;;;;;;;29.07;15.33;;;10.00;1.00;;;;;;4470403;27;657130;-80
2021/11/02 02:22:55;;;;;;;27.07;15.23;;;10.00;1.00;;;;;;4429789;28;655703;-80
2021/11/02 02:25:46;;;;;;;27.00;15.23;;;10.00;1.00;;;;;;4431679;27;656410;-79
2021/11/02 02:28:38;;;;;;;25.47;14.87;;;10.00;1.00;;;;;;4454230;27;655653;-79
2021/11/02 02:31:25;;;;;;;30.80;14.83;;;10.00;1.00;;;;;;4425004;28;655440;-79
2021/11/02 02:34:13;;;;;;;30.40;14.73;;;10.00;1.00;;;;;;4463711;28;656335;-80
2021/11/02 02:37:01;;;;;;;25.88;13.68;;;10.00;1.00;;;;;;4449888;28;655403;-80
2021/11/02 02:39:48;;;;;;;27.67;13.40;;;10.00;1.00;;;;;;4478646;28;656784;-80
2021/11/02 02:42:37;;;;;;;28.27;13.33;;;10.00;1.00;;;;;;4452957;28;655399;-80
2021/11/02 02:45:26;;;;;;;28.40;14.23;;;10.00;1.00;;;;;;4465832;28;655192;-80
2021/11/02 02:48:14;;;;;;;29.43;15.13;;;10.00;1.00;;;;;;4442810;28;655644;-80
2021/11/02 02:51:02;;;;;;;23.50;13.40;;;10.00;1.00;;;;;;4457232;27;655342;-80
2021/11/02 02:53:50;;;;;;;29.63;15.00;;;10.00;1.00;;;;;;4466500;28;654999;-80
2021/11/02 02:56:37;;;;;;;22.90;13.53;;;9.90;1.00;;;;;;4457082;28;655490;-79
2021/11/02 02:59:24;;;;;;;24.93;13.33;;;9.90;1.00;;;;;;4479727;27;654457;-80
2021/11/02 03:02:13;;;;;;;23.63;13.20;;;9.90;1.00;;;;;;4436831;28;654375;-80
2021/11/02 03:05:03;;;;;;;26.20;13.63;;;9.90;1.00;;;;;;4451328;27;654792;-80
2021/11/02 03:07:54;;;;;;;27.60;14.18;;;10.00;1.00;;;;;;4452998;27;655688;-79
2021/11/02 03:10:41;;;;;;;29.90;14.17;;;9.90;19.10;;;;;;4455618;27;655499;-80
2021/11/02 03:13:29;;;;;;;26.40;13.50;;;9.90;65.50;;;;;;4473205;28;655872;-80
2021/11/02 03:16:19;;;;;;;21.97;12.70;;;9.80;99.90;;;;;;4466024;27;655485;-79
2021/11/02 03:19:41;;;;;;;24.07;13.67;;;9.80;99.90;;;;;;4458264;27;656291;-79
2021/11/02 03:44:56;;;;;;;23.53;13.27;;;9.90;99.90;;;;;;4396738;28;656110;-80
2021/11/02 03:48:08;;;;;;;23.67;12.70;;;9.90;99.90;;;;;;4405190;28;655755;-80
2021/11/02 03:51:05;;;;;;;25.77;14.13;;;9.90;99.90;;;;;;4379365;28;655771;-80
2021/11/02 03:57:08;;;;;;;28.80;12.97;;;9.80;99.90;;;;;;4356873;28;655839;-78
2021/11/02 04:00:17;;;;;;;23.00;12.73;;;9.80;1.00;;;;;;4362659;28;656293;-79
2021/11/02 04:34:34;;;;;;;27.47;14.97;;;8.90;1.00;;;;;;4368433;28;654781;-80
2021/11/02 05:50:12;;;;;;;37.88;18.98;;;8.60;99.90;;;;;;4299702;28;655096;-80
2021/11/02 05:56:58;;;;;;;32.63;17.53;;;8.60;99.90;;;;;;4242765;28;655383;-80
2021/11/02 05:59:50;;;;;;;31.40;15.57;;;8.60;99.90;;;;;;4295311;28;656093;-80
2021/11/02 06:05:51;;;;;;;28.60;15.80;;;8.70;99.90;;;;;;4319237;28;655212;-80
2021/11/02 06:09:03;;;;;;;38.70;18.73;;;8.70;99.90;;;;;;4320679;28;655940;-80
2021/11/02 06:27:47;;;;;;;22.20;13.30;;;8.60;99.90;;;;;;4303977;28;655911;-78
2021/11/02 06:30:42;;;;;;;39.27;20.43;;;8.60;99.90;;;;;;4325485;28;656881;-80
2021/11/02 06:33:52;;;;;;;40.60;22.13;;;8.60;99.90;;;;;;4339801;28;655774;-80
2021/11/02 06:39:55;;;;;;;22.50;13.47;;;8.70;99.90;;;;;;4389527;28;656289;-80
2021/11/02 06:43:01;;;;;;;26.30;13.75;;;8.70;99.90;;;;;;4390207;28;655710;-78
2021/11/02 06:49:27;;;;;;;31.23;18.17;;;8.70;99.90;;;;;;4345396;28;655148;-79
2021/11/02 06:52:35;;;;;;;24.47;13.80;;;8.70;99.90;;;;;;4364457;28;655363;-78
2021/11/02 06:55:43;;;;;;;25.50;15.00;;;8.70;99.90;;;;;;4331444;28;656560;-79
2021/11/02 06:59:09;;;;;;;26.40;14.00;;;8.70;99.90;;;;;;4334849;28;656128;-79
2021/11/02 07:17:53;;;;;;;32.57;18.37;;;8.80;99.90;;;;;;4413545;28;655959;-78
2021/11/02 07:20:51;;;;;;;30.90;18.17;;;8.80;99.90;;;;;;4393073;28;656071;-79
2021/11/02 07:23:49;;;;;;;36.15;19.83;;;8.90;99.90;;;;;;4412823;28;655986;-80
2021/11/02 07:26:46;;;;;;;39.40;21.07;;;9.00;99.90;;;;;;4413264;28;655867;-79
2021/11/02 08:47:28;;;;;;;36.53;20.48;;;9.70;66.20;;;;;;4447137;27;655328;-79
2021/11/02 08:50:18;;;;;;;34.40;19.30;;;9.80;64.60;;;;;;4435486;27;656266;-80
2021/11/02 08:53:07;;;;;;;43.13;22.93;;;9.80;60.60;;;;;;4444633;27;656229;-78
2021/11/02 08:55:56;;;;;;;34.47;19.87;;;9.80;59.30;;;;;;4457451;27;656162;-79
2021/11/02 08:58:46;;;;;;;33.60;19.03;;;9.80;52.10;;;;;;4461556;27;655322;-79
2021/11/02 09:01:36;;;;;;;53.73;28.10;;;9.80;52.40;;;;;;4441203;27;656112;-79
2021/11/02 09:04:26;;;;;;;39.47;22.17;;;9.80;66.00;;;;;;4455722;27;655960;-80
2021/11/02 09:07:17;;;;;;;36.77;21.03;;;9.80;62.90;;;;;;4451896;27;656328;-79
2021/11/02 09:10:08;;;;;;;36.07;21.10;;;9.80;70.80;;;;;;4455424;27;655186;-80
2021/11/02 09:12:57;;;;;;;36.20;21.30;;;9.90;66.20;;;;;;4424744;27;655569;-79
2021/11/02 09:15:46;;;;;;;41.92;23.08;;;9.80;76.40;;;;;;4469643;27;655863;-80
2021/11/02 09:18:33;;;;;;;39.30;20.87;;;9.80;87.90;;;;;;4444351;27;656696;-79
2021/11/02 09:21:22;;;;;;;34.20;19.83;;;9.80;89.70;;;;;;4448815;27;655890;-79
2021/11/02 09:24:11;;;;;;;36.47;20.73;;;9.80;97.00;;;;;;4469989;27;655883;-79
2021/11/02 09:26:59;;;;;;;38.23;21.47;;;9.90;99.90;;;;;;4474172;27;656469;-78
2021/11/02 09:29:47;;;;;;;40.67;21.77;;;9.90;98.10;;;;;;4440717;27;655888;-79
2021/11/02 09:32:35;;;;;;;38.07;21.13;;;9.80;99.90;;;;;;4461988;28;655409;-79
2021/11/02 09:35:24;;;;;;;59.17;29.40;;;9.90;99.90;;;;;;4441024;28;656398;-80
2021/11/02 09:38:21;;;;;;;71.70;34.30;;;10.00;99.90;;;;;;4422622;28;656564;-79
2021/11/02 09:42:01;;;;;;;41.40;21.27;;;10.00;99.90;;;;;;4415145;28;656490;-79
2021/11/02 09:45:34;;;;;;;44.63;22.73;;;10.00;99.90;;;;;;4412028;28;656874;-79
2021/11/02 09:48:49;;;;;;;42.17;23.43;;;9.90;99.90;;;;;;4389131;28;657302;-79
2021/11/02 09:52:10;;;;;;;41.30;22.07;;;9.90;99.90;;;;;;4365475;28;655768;-78
2021/11/02 09:55:26;;;;;;;59.43;28.47;;;10.00;99.90;;;;;;4386789;28;656091;-79
2021/11/02 09:58:16;;;;;;;118.23;42.30;;;10.00;99.90;;;;;;4385775;28;656697;-80
2021/11/02 10:01:07;;;;;;;60.70;27.83;;;10.00;99.90;;;;;;4385517;28;657954;-80
2021/11/02 10:04:30;;;;;;;65.73;30.03;;;10.00;99.90;;;;;;4387231;28;656185;-79
2021/11/02 10:07:32;;;;;;;47.67;25.27;;;10.10;99.90;;;;;;4390536;28;656455;-80
2021/11/02 10:10:22;;;;;;;47.23;25.30;;;10.10;99.90;;;;;;4373057;28;656447;-79
2021/11/02 10:13:22;;;;;;;53.87;27.37;;;10.10;99.90;;;;;;4387765;28;656823;-79
2021/11/02 10:16:19;;;;;;;37.53;20.97;;;10.10;99.90;;;;;;4368935;28;656544;-77
2021/11/02 10:19:40;;;;;;;36.13;19.63;;;10.10;99.90;;;;;;4388411;28;658457;-80
2021/11/02 10:22:36;;;;;;;39.50;22.00;;;10.20;99.90;;;;;;4360318;28;657432;-80
2021/11/02 10:25:38;;;;;;;39.53;21.93;;;10.10;99.90;;;;;;4386745;28;657037;-80
2021/11/02 10:28:59;;;;;;;24.70;13.60;;;10.10;99.90;;;;;;4404783;28;657327;-79
2021/11/02 10:31:49;;;;;;;26.57;13.93;;;10.10;99.90;;;;;;4450677;27;657098;-80
2021/11/02 10:34:46;;;;;;;22.17;13.70;;;10.00;55.60;;;;;;4461562;28;657084;-80
2021/11/02 10:37:40;;;;;;;26.03;13.87;;;10.00;43.50;;;;;;4438174;28;656152;-80
2021/11/02 10:40:39;;;;;;;22.60;13.23;;;9.80;38.70;;;;;;4424694;28;657826;-78
2021/11/02 10:44:00;;;;;;;21.40;13.07;;;9.80;55.00;;;;;;4423927;28;655854;-79
2021/11/02 10:46:58;;;;;;;23.60;13.70;;;9.80;72.40;;;;;;4434927;27;655503;-79
2021/11/02 10:50:03;;;;;;;19.52;12.23;;;9.80;95.40;;;;;;4452582;27;656340;-79
2021/11/02 10:52:52;;;;;;;19.97;11.87;;;9.80;69.50;;;;;;4438882;27;655680;-79
2021/11/02 10:55:49;;;;;;;21.63;13.07;;;9.80;61.30;;;;;;4464604;27;657040;-78
2021/11/02 10:58:38;;;;;;;22.07;13.27;;;9.80;84.10;;;;;;4453151;27;655606;-79
2021/11/02 11:01:26;;;;;;;21.53;13.43;;;9.90;79.50;;;;;;4463184;27;655365;-78
2021/11/02 11:04:14;;;;;;;20.97;12.57;;;10.00;94.50;;;;;;4469741;27;656743;-80
2021/11/02 11:07:02;;;;;;;22.37;13.47;;;10.10;92.50;;;;;;4440477;28;657426;-80
2021/11/02 11:09:53;;;;;;;20.20;13.03;;;10.10;91.30;;;;;;4449789;27;656188;-79
2021/11/02 11:12:45;;;;;;;23.60;12.77;;;10.20;87.90;;;;;;4448178;27;656644;-79
2021/11/02 11:15:34;;;;;;;21.20;13.10;;;10.20;70.00;;;;;;4462521;27;657223;-80
2021/11/02 11:18:24;;;;;;;23.80;13.13;;;10.20;62.90;;;;;;4445930;27;656831;-81
2021/11/02 11:21:12;;;;;;;24.20;14.33;;;10.30;60.30;;;;;;4452310;27;656491;-79
2021/11/02 11:24:06;;;;;;;22.73;13.33;;;10.20;16.40;;;;;;4467144;27;656516;-79
2021/11/02 11:26:54;;;;;;;23.37;14.00;;;10.20;28.90;;;;;;4448518;27;656610;-79
2021/11/02 11:29:45;;;;;;;22.27;13.73;;;10.20;48.60;;;;;;4452456;27;656652;-78
2021/11/02 11:32:34;;;;;;;22.30;13.90;;;10.20;47.20;;;;;;4459927;27;657884;-79
2021/11/02 11:35:22;;;;;;;22.90;14.77;;;10.20;50.30;;;;;;4452700;27;657310;-78
2021/11/02 11:38:11;;;;;;;22.30;14.13;;;10.10;43.50;;;;;;4458158;27;656957;-78
2021/11/02 11:40:58;;;;;;;26.70;14.43;;;10.00;47.50;;;;;;4442954;27;657148;-79
2021/11/02 11:43:46;;;;;;;25.23;15.13;;;10.00;49.40;;;;;;4454375;27;657081;-79
2021/11/02 11:46:35;;;;;;;25.10;14.40;;;10.10;58.90;;;;;;4484591;27;657109;-78
2021/11/02 11:49:24;;;;;;;26.27;15.67;;;10.10;88.30;;;;;;4447462;28;657218;-79
2021/11/02 11:52:12;;;;;;;33.27;18.37;;;10.10;85.40;;;;;;4439346;28;656570;-79
2021/11/02 11:54:59;;;;;;;101.57;43.77;;;10.10;80.10;;;;;;4466321;28;656960;-79
2021/11/02 11:57:47;;;;;;;91.40;40.53;;;10.20;84.80;;;;;;4450615;27;658773;-79
2021/11/02 12:00:36;;;;;;;58.57;31.57;;;10.20;79.50;;;;;;4473469;27;656477;-79
2021/11/02 12:03:34;;;;;;;71.63;35.87;;;10.20;93.80;;;;;;4454444;27;656708;-79
2021/11/02 12:06:23;;;;;;;58.10;31.80;;;10.30;85.60;;;;;;4457834;27;657014;-79
2021/11/02 12:09:17;;;;;;;51.40;27.80;;;10.20;89.10;;;;;;4456456;27;656207;-78
2021/11/02 12:12:05;;;;;;;47.60;26.80;;;10.20;92.20;;;;;;4453193;27;657191;-79
2021/11/02 12:14:55;;;;;;;41.93;23.40;;;10.20;83.90;;;;;;4451323;27;656701;-79
2021/11/02 12:17:45;;;;;;;46.53;25.40;;;10.20;92.40;;;;;;4438539;27;656496;-79
2021/11/02 12:20:34;;;;;;;49.77;26.80;;;10.20;81.70;;;;;;4433357;28;657828;-80
2021/11/02 12:23:34;;;;;;;48.03;25.70;;;10.10;76.00;;;;;;4443750;28;656379;-80
2021/11/02 12:26:22;;;;;;;45.37;24.07;;;10.20;78.00;;;;;;4418640;28;656760;-79
2021/11/02 12:29:18;;;;;;;42.73;21.93;;;10.10;90.20;;;;;;4464293;27;656532;-79
2021/11/02 12:32:06;;;;;;;34.90;20.43;;;10.10;93.90;;;;;;4429794;27;656566;-79
2021/11/02 12:35:04;;;;;;;38.40;20.63;;;10.10;97.70;;;;;;4476257;27;657175;-79
2021/11/02 12:37:55;;;;;;;42.80;23.83;;;10.00;94.40;;;;;;4437191;27;656865;-80
2021/11/02 12:40:45;;;;;;;46.67;24.23;;;10.00;99.70;;;;;;4447806;27;656656;-80
2021/11/02 12:43:32;;;;;;;39.20;22.27;;;10.10;98.40;;;;;;4465012;27;656554;-79
2021/11/02 12:46:20;;;;;;;41.60;23.93;;;10.00;99.00;;;;;;4477312;27;656277;-79
2021/11/02 12:49:08;;;;;;;43.57;24.73;;;10.00;97.30;;;;;;4449571;27;657623;-80
2021/11/02 12:52:02;;;;;;;45.83;24.77;;;10.00;93.30;;;;;;4466567;27;658196;-79
2021/11/02 12:55:00;;;;;;;41.00;23.13;;;10.00;96.70;;;;;;4471234;27;656491;-79
2021/11/02 12:57:48;;;;;;;43.83;23.67;;;10.00;97.50;;;;;;4460573;27;656707;-79
2021/11/02 13:00:40;;;;;;;40.70;22.90;;;10.00;99.90;;;;;;4461257;27;656378;-79
2021/11/02 13:03:44;;;;;;;41.77;23.90;;;10.00;99.90;;;;;;4454593;27;657107;-79
2021/11/02 13:06:44;;;;;;;36.67;21.77;;;9.90;99.90;;;;;;4441669;28;657936;-79
2021/11/02 13:09:35;;;;;;;40.47;21.90;;;9.90;99.90;;;;;;4421381;27;656009;-80
2021/11/02 13:12:25;;;;;;;43.03;21.97;;;10.00;99.90;;;;;;4440895;27;656114;-79
2021/11/02 13:15:15;;;;;;;48.10;23.60;;;10.00;99.90;;;;;;4449162;27;656600;-79
2021/11/02 13:18:03;;;;;;;47.30;24.60;;;10.00;99.90;;;;;;4442735;28;656651;-80
2021/11/02 13:21:00;;;;;;;42.07;22.80;;;10.00;99.90;;;;;;4441881;27;657023;-79
2021/11/02 13:23:53;;;;;;;41.73;23.43;;;10.00;99.90;;;;;;4435657;27;661869;-78
2021/11/02 13:26:42;;;;;;;41.63;22.63;;;10.00;99.90;;;;;;4422782;27;656797;-79
2021/11/02 13:29:31;;;;;;;41.33;23.73;;;10.00;99.90;;;;;;4495182;27;657770;-79
2021/11/02 13:32:18;;;;;;;39.87;23.27;;;9.90;99.90;;;;;;4469997;27;656948;-78
2021/11/02 13:35:07;;;;;;;37.47;21.27;;;10.00;99.90;;;;;;4468495;27;655366;-78
2021/11/02 13:37:54;;;;;;;34.97;20.73;;;10.00;99.90;;;;;;4487208;27;656585;-79
2021/11/02 13:40:42;;;;;;;39.10;22.63;;;9.80;99.90;;;;;;4463665;27;656747;-79
2021/11/02 13:43:31;;;;;;;38.77;21.47;;;9.80;99.90;;;;;;4489458;27;655569;-78
2021/11/02 13:46:21;;;;;;;39.30;22.50;;;9.80;99.90;;;;;;4462080;27;656200;-79
2021/11/02 13:49:09;;;;;;;40.37;22.87;;;9.80;99.90;;;;;;4466841;27;655724;-78
2021/11/02 13:51:57;;;;;;;41.97;21.83;;;9.70;99.90;;;;;;4466075;27;656522;-78
2021/11/02 13:54:46;;;;;;;39.40;21.70;;;9.70;99.90;;;;;;4485265;27;655362;-79
2021/11/02 13:57:34;;;;;;;40.17;21.20;;;9.70;99.90;;;;;;4470348;27;655852;-78
2021/11/02 14:00:22;;;;;;;36.37;19.87;;;9.70;99.90;;;;;;4467775;27;656022;-78
2021/11/02 14:03:12;;;;;;;38.80;19.67;;;9.70;99.90;;;;;;4495362;27;656032;-77
2021/11/02 14:06:05;;;;;;;38.40;21.23;;;9.60;99.90;;;;;;4462922;27;656889;-79
2021/11/02 14:08:57;;;;;;;44.30;22.03;;;9.60;99.90;;;;;;4472073;27;656660;-78
2021/11/02 14:11:50;;;;;;;37.43;18.87;;;9.50;99.90;;;;;;4449999;27;655782;-78
2021/11/02 14:14:41;;;;;;;36.47;19.97;;;9.40;99.90;;;;;;4470286;27;656353;-78
2021/11/02 14:17:34;;;;;;;40.57;20.37;;;9.40;99.90;;;;;;4467069;27;655895;-78
2021/11/02 14:20:37;;;;;;;44.13;21.87;;;9.40;99.90;;;;;;4423544;27;655716;-78
2021/11/02 14:23:34;;;;;;;42.47;21.27;;;9.40;99.90;;;;;;4453158;27;656463;-78
2021/11/02 14:26:24;;;;;;;39.97;22.40;;;9.40;99.90;;;;;;4462165;27;655443;-78
2021/11/02 14:29:18;;;;;;;38.33;22.27;;;9.30;99.90;;;;;;4468400;27;655418;-78
2021/11/02 14:32:14;;;;;;;37.38;20.40;;;9.30;99.90;;;;;;4461560;27;655794;-79
2021/11/02 14:35:08;;;;;;;38.53;20.57;;;9.10;99.90;;;;;;4425437;28;655334;-78
2021/11/02 14:38:07;;;;;;;31.80;17.97;;;9.10;99.90;;;;;;4423392;27;656392;-79
2021/11/02 14:41:03;;;;;;;27.53;14.80;;;9.00;99.90;;;;;;4442129;27;655795;-78
2021/11/02 14:43:54;;;;;;;24.53;14.77;;;8.90;99.90;;;;;;4447593;27;655576;-79
2021/11/02 14:46:43;;;;;;;28.47;14.80;;;8.70;99.90;;;;;;4445569;28;655261;-78
2021/11/02 14:49:41;;;;;;;26.73;15.33;;;8.70;99.90;;;;;;4444072;28;655654;-78
2021/11/02 14:52:29;;;;;;;28.63;16.20;;;8.50;99.90;;;;;;4460945;27;656269;-77
2021/11/02 14:55:36;;;;;;;30.93;16.70;;;8.50;99.90;;;;;;4463501;27;655368;-78
2021/11/02 14:58:44;;;;;;;27.97;16.60;;;8.50;99.90;;;;;;4453739;27;656312;-79
2021/11/02 15:02:07;;;;;;;33.17;17.50;;;8.40;99.90;;;;;;4443202;27;655305;-79
2021/11/02 15:04:55;;;;;;;29.97;16.20;;;8.40;99.90;;;;;;4450091;27;655578;-79
2021/11/02 15:07:43;;;;;;;29.70;17.23;;;8.40;99.90;;;;;;4454680;28;655718;-78
2021/11/02 15:10:32;;;;;;;32.40;17.57;;;8.40;99.90;;;;;;4454408;28;655836;-79
2021/11/02 15:13:23;;;;;;;28.20;17.23;;;8.40;99.90;;;;;;4446905;28;655320;-79
2021/11/02 15:16:12;;;;;;;27.30;16.77;;;8.40;99.90;;;;;;4425137;27;655896;-79
2021/11/02 15:19:01;;;;;;;33.03;17.53;;;8.40;99.90;;;;;;4479607;28;655414;-79
2021/11/02 15:21:53;;;;;;;32.33;17.80;;;8.40;99.90;;;;;;4458952;28;655772;-79
2021/11/02 15:24:42;;;;;;;31.23;17.70;;;8.40;99.90;;;;;;4439032;28;655703;-79
2021/11/02 15:27:32;;;;;;;26.63;16.67;;;8.40;99.90;;;;;;4478307;28;655457;-78
2021/11/02 15:30:20;;;;;;;30.37;17.53;;;8.40;99.90;;;;;;4430761;28;656538;-80
2021/11/02 15:33:08;;;;;;;31.93;17.90;;;8.40;99.90;;;;;;4442113;28;656336;-82
2021/11/02 15:36:08;;;;;;;33.50;19.25;;;8.40;99.90;;;;;;4454322;27;655981;-80
2021/11/02 15:39:01;;;;;;;41.07;21.13;;;8.40;99.90;;;;;;4420998;27;655646;-78
2021/11/02 15:41:50;;;;;;;39.60;18.33;;;8.50;99.90;;;;;;4437269;27;655924;-81
2021/11/02 15:44:40;;;;;;;36.27;19.33;;;8.50;99.90;;;;;;4437968;27;656643;-81
2021/11/02 15:47:29;;;;;;;35.87;18.57;;;8.50;99.90;;;;;;4459008;27;655375;-80
2021/11/02 15:50:17;;;;;;;42.13;21.77;;;8.50;99.90;;;;;;4435073;28;656228;-82
2021/11/02 15:53:09;;;;;;;44.17;23.57;;;8.50;99.90;;;;;;4444082;28;655240;-81
2021/11/02 15:55:57;;;;;;;34.00;18.50;;;8.50;99.90;;;;;;4441124;28;655668;-82
2021/11/02 15:58:44;;;;;;;32.07;18.50;;;8.50;99.90;;;;;;4451772;28;655477;-81
2021/11/02 16:01:36;;;;;;;41.07;20.40;;;8.50;99.90;;;;;;4439845;28;655773;-80
2021/11/02 16:04:25;;;;;;;33.70;20.00;;;8.50;99.90;;;;;;4443480;28;656802;-82
2021/11/02 16:07:14;;;;;;;79.70;33.93;;;8.50;99.90;;;;;;4446177;28;656088;-80
2021/11/02 16:10:02;;;;;;;97.67;42.13;;;8.50;99.90;;;;;;4435265;28;655473;-79
2021/11/02 16:12:50;;;;;;;100.00;46.27;;;8.50;99.90;;;;;;4467419;27;655320;-82
2021/11/02 16:15:38;;;;;;;99.57;46.03;;;8.50;99.90;;;;;;4447153;27;657275;-82
2021/11/02 16:18:28;;;;;;;91.93;45.20;;;8.50;99.90;;;;;;4433559;28;655270;-80
2021/11/02 16:21:16;;;;;;;98.03;48.00;;;8.50;99.90;;;;;;4433162;28;657598;-82
2021/11/02 16:24:09;;;;;;;94.17;44.37;;;8.50;99.90;;;;;;4469304;27;656945;-79
2021/11/02 16:26:58;;;;;;;97.57;45.63;;;8.50;99.90;;;;;;4445400;27;655678;-81
2021/11/02 16:29:46;;;;;;;152.98;50.25;;;8.50;99.90;;;;;;4441786;28;655535;-80
2021/11/02 16:32:36;;;;;;;129.40;46.20;;;8.50;99.90;;;;;;4465468;28;657297;-81
2021/11/02 16:35:41;;;;;;;102.50;39.90;;;8.50;99.90;;;;;;4443523;28;657114;-79
2021/11/02 16:38:33;;;;;;;90.33;39.40;;;8.50;99.90;;;;;;4441120;28;656387;-76
2021/11/02 16:41:22;;;;;;;103.72;45.80;;;8.50;99.90;;;;;;4444766;28;655775;-76
2021/11/02 16:44:11;;;;;;;88.17;40.57;;;8.50;99.90;;;;;;4467599;28;656819;-77
2021/11/02 16:47:05;;;;;;;86.63;41.13;;;8.40;99.90;;;;;;4449655;28;656352;-81
2021/11/02 16:49:53;;;;;;;52.20;24.93;;;8.40;99.90;;;;;;4444464;28;655382;-79
2021/11/02 16:52:43;;;;;;;52.83;26.97;;;8.30;99.90;;;;;;4447762;28;656225;-79
2021/11/02 16:55:31;;;;;;;56.73;28.97;;;8.20;99.90;;;;;;4448177;28;655958;-77
2021/11/02 16:58:34;;;;;;;61.00;31.03;;;8.20;99.90;;;;;;4464174;28;656065;-81
2021/11/02 17:01:27;;;;;;;54.67;28.73;;;8.20;99.90;;;;;;4444980;28;655489;-78
2021/11/02 17:04:21;;;;;;;47.43;25.53;;;8.10;99.90;;;;;;4434472;28;655617;-78
2021/11/02 17:07:11;;;;;;;49.63;27.17;;;8.10;99.90;;;;;;4434528;28;655804;-79
2021/11/02 17:10:01;;;;;;;51.93;28.00;;;8.00;99.90;;;;;;4447478;28;655948;-80
2021/11/02 17:12:49;;;;;;;50.05;26.63;;;8.00;99.90;;;;;;4448621;28;656682;-79
2021/11/02 17:15:39;;;;;;;58.47;30.95;;;7.90;99.90;;;;;;4448565;28;655454;-79
2021/11/02 17:18:28;;;;;;;43.97;22.73;;;7.80;99.90;;;;;;4442367;28;656437;-78
2021/11/02 17:21:18;;;;;;;44.30;23.40;;;7.80;99.90;;;;;;4445973;28;656206;-78
2021/11/02 17:24:08;;;;;;;46.67;22.13;;;7.80;99.90;;;;;;4458101;28;655522;-79
2021/11/02 17:26:58;;;;;;;43.37;23.97;;;7.80;99.90;;;;;;4434860;27;656321;-77
2021/11/02 17:29:46;;;;;;;49.10;24.90;;;7.80;99.90;;;;;;4454850;27;655576;-78
2021/11/02 17:32:42;;;;;;;42.30;24.47;;;7.70;99.90;;;;;;4473326;27;655787;-79
2021/11/02 17:35:35;;;;;;;45.57;25.10;;;7.70;99.90;;;;;;4455930;27;656122;-78
2021/11/02 17:38:25;;;;;;;49.63;25.23;;;7.70;99.90;;;;;;4456991;27;655697;-78
2021/11/02 17:41:13;;;;;;;48.50;25.33;;;7.70;99.90;;;;;;4457705;27;658067;-78
2021/11/02 17:44:03;;;;;;;43.13;24.73;;;7.70;99.90;;;;;;4457834;27;655655;-77
2021/11/02 17:46:52;;;;;;;39.40;22.80;;;7.70;99.90;;;;;;4463149;27;655504;-78
2021/11/02 17:49:41;;;;;;;37.53;21.03;;;7.70;99.90;;;;;;4475806;27;656197;-75
2021/11/02 17:52:29;;;;;;;40.83;22.93;;;7.60;99.90;;;;;;4445268;27;656114;-75
2021/11/02 17:55:19;;;;;;;42.57;23.50;;;7.60;99.90;;;;;;4450417;27;657148;-77
2021/11/02 17:58:07;;;;;;;41.90;22.53;;;7.60;99.90;;;;;;4456517;27;656239;-77
2021/11/02 18:00:58;;;;;;;43.73;23.97;;;7.60;99.90;;;;;;4479861;27;655421;-77
2021/11/02 18:03:47;;;;;;;43.80;23.30;;;7.60;99.90;;;;;;4451853;27;655762;-77
2021/11/02 18:06:36;;;;;;;39.63;22.50;;;7.50;99.90;;;;;;4477223;27;654880;-78
2021/11/02 18:09:24;;;;;;;37.60;22.17;;;7.50;99.90;;;;;;4454508;27;655259;-78
2021/11/02 18:12:13;;;;;;;42.33;23.83;;;7.60;99.90;;;;;;4455899;27;655770;-77
2021/11/02 18:15:02;;;;;;;50.37;25.07;;;7.50;99.90;;;;;;4455977;27;656068;-77
2021/11/02 18:17:53;;;;;;;47.13;24.63;;;7.50;99.90;;;;;;4472261;27;656542;-78
2021/11/02 18:20:42;;;;;;;47.40;24.77;;;7.40;99.90;;;;;;4427611;28;656864;-78
2021/11/02 18:23:32;;;;;;;43.37;23.27;;;7.40;99.90;;;;;;4483480;27;657012;-77
2021/11/02 18:26:22;;;;;;;47.07;25.37;;;7.40;99.90;;;;;;4455971;27;657161;-76
2021/11/02 18:29:11;;;;;;;50.47;24.30;;;7.40;99.90;;;;;;4451405;27;656456;-77
2021/11/02 18:32:06;;;;;;;48.47;24.80;;;7.40;99.90;;;;;;4459278;27;656799;-77
2021/11/02 18:34:57;;;;;;;55.57;28.33;;;7.50;99.90;;;;;;4461822;27;656586;-77
2021/11/02 18:37:45;;;;;;;56.40;29.23;;;7.50;99.90;;;;;;4464516;28;656449;-78
2021/11/02 18:40:35;;;;;;;57.53;30.40;;;7.50;99.90;;;;;;4459463;28;656775;-77
2021/11/02 18:43:25;;;;;;;57.87;30.17;;;7.50;99.90;;;;;;4463465;28;656688;-76
2021/11/02 18:46:13;;;;;;;51.20;28.93;;;7.40;99.90;;;;;;4457998;28;656254;-77